createdAt,value
2019-02-12T00:01:54.034Z,99196.19
2019-02-12T00:06:59.221Z,99191.58
2019-02-12T00:12:05.248Z,99192.81
2019-02-12T00:17:10.771Z,99213.61
2019-02-12T00:22:15.944Z,99210.78
2019-02-12T00:27:21.135Z,99221.78
2019-02-12T00:32:26.315Z,99222.11
2019-02-12T00:37:31.553Z,99227.77
2019-02-12T00:42:36.734Z,99234.85
2019-02-12T00:47:41.954Z,99225.78
2019-02-12T00:52:47.138Z,99226.61
2019-02-12T00:57:52.677Z,99234.09
2019-02-12T01:02:58.848Z,99240.77
2019-02-12T01:08:04.023Z,99233.95
2019-02-12T01:13:09.204Z,99250.39
2019-02-12T01:18:14.426Z,99249.23
2019-02-12T01:23:19.961Z,99243.71
2019-02-12T01:28:25.514Z,99255.83
2019-02-12T01:33:31.007Z,99263.38
2019-02-12T01:38:36.569Z,99263.74
2019-02-12T01:43:41.772Z,99264.83
2019-02-12T01:48:47.335Z,99256.23
2019-02-12T01:53:52.846Z,99262.22
2019-02-12T01:58:58.107Z,99270.20
2019-02-12T02:04:03.954Z,99259.24
2019-02-12T02:09:09.145Z,99267.81
2019-02-12T02:14:14.683Z,99274.12
2019-02-12T02:19:20.225Z,99263.06
2019-02-12T02:24:26.149Z,99272.05
2019-02-12T02:29:31.659Z,99282.44
2019-02-12T02:34:36.857Z,99287.41
2019-02-12T02:39:42.077Z,99307.74
2019-02-12T02:44:47.602Z,99314.02
2019-02-12T02:49:52.753Z,99319.17
2019-02-12T02:54:57.946Z,99330.80
2019-02-12T03:00:03.140Z,99322.95
2019-02-12T03:05:10.863Z,99334.09
2019-02-12T03:10:16.432Z,99352.45
2019-02-12T03:15:21.612Z,99338.71
2019-02-12T03:20:27.143Z,99338.33
2019-02-12T03:25:32.670Z,99341.39
2019-02-12T03:30:38.236Z,99354.98
2019-02-12T03:35:43.450Z,99358.99
2019-02-12T03:40:48.936Z,99368.05
2019-02-12T03:45:55.298Z,99379.28
2019-02-12T03:51:00.513Z,99385.29
2019-02-12T03:56:06.045Z,99396.33
2019-02-12T04:01:11.216Z,99380.56
2019-02-12T04:06:17.253Z,99397.07
2019-02-12T04:11:24.335Z,99401.04
2019-02-12T04:16:29.318Z,99390.45
2019-02-12T04:21:34.847Z,99396.11
2019-02-12T04:26:40.056Z,99388.42
2019-02-12T04:31:45.244Z,99377.78
2019-02-12T04:36:50.459Z,99376.95
2019-02-12T04:41:55.649Z,99386.61
2019-02-12T04:47:00.860Z,99378.17
2019-02-12T04:52:06.362Z,99358.13
2019-02-12T04:57:11.578Z,99351.13
2019-02-12T05:02:17.149Z,99343.77
2019-02-12T05:07:22.929Z,99349.53
2019-02-12T05:12:28.407Z,99351.86
2019-02-12T05:17:33.592Z,99354.37
2019-02-12T05:22:43.730Z,99360.15
2019-02-12T05:27:45.806Z,99354.41
2019-02-12T05:32:50.998Z,99367.47
2019-02-12T05:37:56.362Z,99370.77
2019-02-12T05:43:01.925Z,99379.55
2019-02-12T05:48:07.392Z,99377.22
2019-02-12T05:53:12.610Z,99365.53
2019-02-12T05:58:17.989Z,99364.92
2019-02-12T06:03:23.558Z,99368.64
2019-02-12T06:08:28.744Z,99367.98
2019-02-12T06:13:33.953Z,99376.16
2019-02-12T06:18:39.139Z,99395.37
2019-02-12T06:23:44.735Z,99390.25
2019-02-12T06:28:50.557Z,99395.93
2019-02-12T06:33:56.164Z,99407.69
2019-02-12T06:39:02.214Z,99427.41
2019-02-12T06:44:08.510Z,99428.91
2019-02-12T06:49:13.740Z,99453.94
2019-02-12T06:54:19.000Z,99463.28
2019-02-12T06:59:24.316Z,99468.30
2019-02-12T07:04:30.377Z,99482.97
2019-02-12T07:09:44.325Z,99488.75
2019-02-12T07:15:28.015Z,99499.13
2019-02-12T07:21:15.948Z,99500.94
2019-02-12T07:26:55.210Z,99496.18
2019-02-12T07:32:34.837Z,99501.16
2019-02-12T07:38:18.930Z,99524.66
2019-02-12T07:44:08.170Z,99528.10
2019-02-12T07:49:49.856Z,99540.66
2019-02-12T07:55:37.912Z,99547.05
2019-02-12T08:01:00.426Z,99553.81
2019-02-12T08:06:19.328Z,99552.85
2019-02-12T08:12:33.019Z,99552.45
2019-02-12T08:18:34.160Z,99561.70
2019-02-12T08:23:54.773Z,99555.03
2019-02-12T08:29:30.231Z,99566.86
2019-02-12T08:35:09.430Z,99563.84
2019-02-12T08:40:51.092Z,99566.89
2019-02-12T08:46:41.195Z,99563.77
2019-02-12T08:52:23.271Z,99574.83
2019-02-12T08:58:00.857Z,99582.25
2019-02-12T09:03:32.190Z,99595.05
2019-02-12T09:08:54.810Z,99594.64
2019-02-12T09:14:17.734Z,99590.30
2019-02-12T09:19:39.172Z,99595.61
2019-02-12T09:25:03.270Z,99599.83
2019-02-12T09:30:34.540Z,99610.88
2019-02-12T09:36:03.373Z,99632.23
2019-02-12T09:41:19.454Z,99635.59
2019-02-12T09:47:15.285Z,99641.98
2019-02-12T09:53:04.307Z,99646.84
2019-02-12T09:58:26.923Z,99663.02
2019-02-12T10:04:07.993Z,99659.97
2019-02-12T10:09:57.604Z,99680.93
2019-02-12T10:15:36.711Z,99672.02
2019-02-12T10:20:56.680Z,99662.92
2019-02-12T10:26:06.639Z,99665.13
2019-02-12T10:31:27.167Z,99679.75
2019-02-12T10:36:32.386Z,99683.67
2019-02-12T10:41:38.007Z,99685.98
2019-02-12T10:46:43.624Z,99692.09
2019-02-12T10:51:48.824Z,99687.21
2019-02-12T10:56:54.013Z,99705.86
2019-02-12T11:01:59.353Z,99703.37
2019-02-12T11:07:04.547Z,99705.77
2019-02-12T11:12:09.725Z,99721.49
2019-02-12T11:17:15.196Z,99711.44
2019-02-12T11:22:20.387Z,99705.06
2019-02-12T11:27:25.589Z,99690.59
2019-02-12T11:32:31.251Z,99682.23
2019-02-12T11:37:36.468Z,99683.42
2019-02-12T11:42:41.664Z,99680.27
2019-02-12T11:47:47.651Z,99681.20
2019-02-12T11:52:52.846Z,99679.41
2019-02-12T11:57:58.121Z,99690.61
2019-02-12T12:03:03.616Z,99686.05
2019-02-12T12:08:08.812Z,99685.34
2019-02-12T12:13:14.344Z,99700.91
2019-02-12T12:18:19.905Z,99717.42
2019-02-12T12:23:25.430Z,99699.98
2019-02-12T12:28:30.643Z,99710.45
2019-02-12T12:33:35.920Z,99702.93
2019-02-12T12:38:41.503Z,99707.84
2019-02-12T12:43:47.053Z,99703.77
2019-02-12T12:48:53.109Z,99697.28
2019-02-12T12:53:58.504Z,99706.92
2019-02-12T12:59:04.015Z,99696.63
2019-02-12T13:04:09.204Z,99699.00
2019-02-12T13:09:14.375Z,99709.02
2019-02-12T13:14:19.588Z,99720.28
2019-02-12T13:19:25.501Z,99738.12
2019-02-12T13:24:31.161Z,99715.89
2019-02-12T13:29:36.723Z,99715.20
2019-02-12T13:34:41.904Z,99716.57
2019-02-12T13:39:47.140Z,99714.90
2019-02-12T13:44:52.323Z,99718.36
2019-02-12T13:49:59.277Z,99719.52
2019-02-12T13:55:06.303Z,99731.06
2019-02-12T14:00:13.416Z,99730.38
2019-02-12T14:05:18.863Z,99742.98
2019-02-12T14:10:24.454Z,99739.33
2019-02-12T14:15:29.767Z,99739.95
2019-02-12T14:20:35.490Z,99758.38
2019-02-12T14:25:41.049Z,99753.00
2019-02-12T14:30:46.596Z,99761.70
2019-02-12T14:35:51.790Z,99761.47
2019-02-12T14:40:57.116Z,99776.91
2019-02-12T14:46:02.308Z,99773.89
2019-02-12T14:51:07.836Z,99785.83
2019-02-12T14:56:13.663Z,99788.30
2019-02-12T15:01:18.828Z,99801.66
2019-02-12T15:06:24.147Z,99796.16
2019-02-12T15:11:29.680Z,99806.48
2019-02-12T15:16:34.889Z,99803.16
2019-02-12T15:21:40.862Z,99822.45
2019-02-12T15:26:46.326Z,99829.84
2019-02-12T15:31:51.503Z,99831.44
2019-02-12T15:36:56.845Z,99832.82
2019-02-12T15:42:02.028Z,99843.58
2019-02-12T15:47:07.234Z,99851.96
2019-02-12T15:52:12.760Z,99857.72
2019-02-12T15:57:18.305Z,99862.40
2019-02-12T16:02:23.833Z,99865.96
2019-02-12T16:07:29.033Z,99870.25
2019-02-12T16:12:34.610Z,99876.48
2019-02-12T16:17:39.801Z,99879.86
2019-02-12T16:22:45.150Z,99886.20
2019-02-12T16:27:52.611Z,99890.64
2019-02-12T16:32:58.421Z,99902.47
2019-02-12T16:38:03.611Z,99905.85
2019-02-12T16:43:08.804Z,99916.02
2019-02-12T16:48:14.009Z,99919.57
2019-02-12T16:53:19.377Z,99929.30
2019-02-12T16:58:24.863Z,99922.19
2019-02-12T17:03:30.069Z,99921.58
2019-02-12T17:08:35.260Z,99929.91
2019-02-12T17:13:40.803Z,99937.67
2019-02-12T17:18:46.808Z,99928.52
2019-02-12T17:23:52.272Z,99941.25
2019-02-12T17:28:57.466Z,99945.31
2019-02-12T17:34:02.685Z,99952.82
2019-02-12T17:39:07.703Z,99957.83
2019-02-12T17:44:14.688Z,99953.69
2019-02-12T17:49:20.139Z,99959.30
2019-02-12T17:54:26.765Z,99965.23
2019-02-12T17:59:31.973Z,99970.84
2019-02-12T18:04:37.477Z,99976.41
2019-02-12T18:09:43.020Z,99982.11
2019-02-12T18:14:48.264Z,99980.19
2019-02-12T18:19:53.842Z,99975.30
2019-02-12T18:24:59.115Z,99984.20
2019-02-12T18:30:05.416Z,99990.63
2019-02-12T18:35:10.669Z,99994.30
2019-02-12T18:40:15.981Z,99996.44
2019-02-12T18:45:21.483Z,99991.94
2019-02-12T18:50:26.771Z,99992.19
2019-02-12T18:55:32.336Z,99999.69
2019-02-12T19:00:37.336Z,100003.94
2019-02-12T19:05:43.910Z,100003.62
2019-02-12T19:10:49.529Z,100003.68
2019-02-12T19:15:55.160Z,100014.16
2019-02-12T19:21:00.807Z,100014.50
2019-02-12T19:26:06.141Z,100011.91
2019-02-12T19:31:11.440Z,100015.00
2019-02-12T19:36:17.158Z,100010.48
2019-02-12T19:41:22.342Z,100005.73
2019-02-12T19:46:27.629Z,100010.97
2019-02-12T19:51:34.274Z,100012.52
2019-02-12T19:56:39.882Z,100009.64
2019-02-12T20:01:45.382Z,100014.05
2019-02-12T20:06:50.924Z,100013.94
2019-02-12T20:11:56.112Z,100008.31
2019-02-12T20:17:01.329Z,100009.77
2019-02-12T20:22:06.848Z,100010.71
2019-02-12T20:27:12.518Z,100005.98
2019-02-12T20:32:17.718Z,100008.42
2019-02-12T20:37:22.946Z,100012.84
2019-02-12T20:42:28.142Z,100019.27
2019-02-12T20:47:33.353Z,100025.21
2019-02-12T20:52:39.595Z,100018.54
2019-02-12T20:57:45.273Z,100018.20
2019-02-12T21:02:50.481Z,100021.52
2019-02-12T21:07:58.063Z,100021.53
2019-02-12T21:13:03.268Z,100027.57
2019-02-12T21:18:08.465Z,100037.69
2019-02-12T21:23:13.996Z,100038.72
2019-02-12T21:28:19.579Z,100039.95
2019-02-12T21:33:24.918Z,100034.02
2019-02-12T21:38:30.575Z,100047.45
2019-02-12T21:43:36.174Z,100042.79
2019-02-12T21:48:41.378Z,100036.59
2019-02-12T21:53:46.683Z,100051.39
2019-02-12T21:58:52.067Z,100050.06
2019-02-12T22:03:57.535Z,100058.50
2019-02-12T22:09:02.723Z,100056.59
2019-02-12T22:14:07.923Z,100056.70
2019-02-12T22:19:13.246Z,100059.83
2019-02-12T22:24:18.460Z,100061.13
2019-02-12T22:29:23.762Z,100058.29
2019-02-12T22:34:29.424Z,100058.38
2019-02-12T22:39:37.164Z,100057.05
2019-02-12T22:44:42.656Z,100053.05
2019-02-12T22:49:47.931Z,100048.04
2019-02-12T22:54:53.850Z,100040.45
2019-02-12T22:59:59.059Z,100035.91
2019-02-12T23:05:04.286Z,100047.81
2019-02-12T23:10:09.544Z,100069.45
2019-02-12T23:15:14.742Z,100059.24
2019-02-12T23:20:21.977Z,100064.61
2019-02-12T23:25:28.878Z,100058.06
2019-02-12T23:30:34.079Z,100077.53
2019-02-12T23:35:39.823Z,100093.02
2019-02-12T23:40:45.127Z,100086.21
2019-02-12T23:45:50.333Z,100092.06
2019-02-12T23:50:55.874Z,100089.31
2019-02-12T23:56:01.081Z,100088.36
